KMWA Airport Information

Runway Information
Runway 02 Length 8012 ft width 150 ft
Elevation 453 ft Threshold 0 ft Heading 23
Runway 20 Length 8012 ft Width 150 ft
Elevation 466 ft Threshold 0 ft Heading 203
Runway 11 Length 5000 ft width 100 ft
Elevation 454 ft Threshold 0 ft Heading 108
Runway 29 Length 5000 ft Width 100 ft
Elevation 468 ft Threshold 0 ft Heading 288
Airport Frequencies
Type AWOS Name AWOS 3 Frequency 119.675 MHZ
Type CLD Name CLNC DEL Frequency 125.3 MHZ
Type CNTR Name KANSAS CIT Frequency 125.3 MHZ
Type CTAF Name CTAF Frequency 126.9 MHZ
Type GND Name GND Frequency 121.7 MHZ
Type RDO Name ST LOUIS R Frequency 110.4 MHZ
Type TWR Name MARION TWR Frequency 126.9 MHZ
Type UNIC Name UNICOM Frequency 122.95 MHZ
Airport Navaids
Airport Weather Information & NOTAM
ADDS - METARS form results

(1656 UTC 28 July 2021)
Data provider http://aviationweather.gov/metar/data/
 
METAR text: KMWA 281645Z 00000KT 10SM FEW150 30/22 A3010
Conditions at: KMWA (MARION REGIONAL , IL, US) observed 1645 UTC 28 July 2021
Temperature: 30.0°C (86°F)
Dewpoint: 22.0°C (72°F) [RH = 62%]
Pressure (altimeter): 30.10 inches Hg (1019.4 mb)
Winds: calm
Visibility: 10 or more miles (16+ km)
Ceiling: at least 12,000 feet AGL
Clouds: few clouds at 15000 feet AGL
Weather: no significant weather observed at this time